createdAt,value
2023-05-13T00:04:51.094Z,100288.78
2023-05-13T00:09:52.834Z,100285.19
2023-05-13T00:14:54.434Z,100280.91
2023-05-13T00:19:56.152Z,100282.03
2023-05-13T00:24:57.763Z,100275.00
2023-05-13T00:30:00.011Z,100278.81
2023-05-13T00:35:01.764Z,100277.78
2023-05-13T00:40:03.807Z,100279.81
2023-05-13T00:45:06.486Z,100276.56
2023-05-13T00:50:10.240Z,100277.53
2023-05-13T00:55:12.130Z,100278.94
2023-05-13T01:00:14.360Z,100276.66
2023-05-13T01:05:27.173Z,100277.44
2023-05-13T01:10:51.408Z,100286.91
2023-05-13T01:16:01.528Z,100287.34
2023-05-13T01:21:06.471Z,100293.25
2023-05-13T01:26:08.235Z,100302.63
2023-05-13T01:31:10.959Z,100307.13
2023-05-13T01:36:14.399Z,100313.97
2023-05-13T01:41:16.304Z,100319.13
2023-05-13T01:46:18.691Z,100319.66
2023-05-13T01:51:20.645Z,100326.06
2023-05-13T01:56:22.455Z,100327.19
2023-05-13T02:01:24.575Z,100329.38
2023-05-13T02:06:28.182Z,100327.78
2023-05-13T02:11:30.035Z,100322.81
2023-05-13T02:16:32.690Z,100327.94
2023-05-13T02:21:34.906Z,100327.84
2023-05-13T02:26:36.578Z,100325.59
2023-05-13T02:31:38.222Z,100330.19
2023-05-13T02:36:39.902Z,100322.34
2023-05-13T02:41:41.798Z,100321.34
2023-05-13T02:46:44.255Z,100324.13
2023-05-13T02:51:46.284Z,100327.28
2023-05-13T02:56:48.187Z,100325.38
2023-05-13T03:01:50.128Z,100323.00
2023-05-13T03:06:52.940Z,100328.63
2023-05-13T03:11:54.609Z,100325.72
2023-05-13T03:16:56.300Z,100320.06
2023-05-13T03:21:58.065Z,100323.09
2023-05-13T03:27:00.097Z,100327.06
2023-05-13T03:32:02.234Z,100329.34
2023-05-13T03:37:04.137Z,100338.06
2023-05-13T03:42:06.855Z,100334.97
2023-05-13T03:47:09.107Z,100348.75
2023-05-13T03:52:10.789Z,100342.97
2023-05-13T03:57:12.606Z,100346.38
2023-05-13T04:02:14.682Z,100342.97
2023-05-13T04:07:16.354Z,100344.94
2023-05-13T04:12:18.200Z,100345.13
2023-05-13T04:17:20.139Z,100353.19
2023-05-13T04:22:22.097Z,100357.47
2023-05-13T04:27:24.680Z,100350.38
2023-05-13T04:32:31.882Z,100349.44
2023-05-13T04:37:33.838Z,100358.72
2023-05-13T04:42:39.584Z,100362.56
2023-05-13T04:47:41.401Z,100367.53
2023-05-13T04:52:43.251Z,100365.47
2023-05-13T04:57:45.584Z,100366.50
2023-05-13T05:02:47.422Z,100378.75
2023-05-13T05:07:49.260Z,100383.00
2023-05-13T05:12:52.587Z,100388.22
2023-05-13T05:17:57.218Z,100382.78
2023-05-13T05:22:59.694Z,100385.69
2023-05-13T05:28:05.356Z,100390.97
2023-05-13T05:33:09.157Z,100396.19
2023-05-13T05:38:13.571Z,100396.38
2023-05-13T05:43:16.803Z,100395.44
2023-05-13T05:48:18.853Z,100409.03
2023-05-13T05:53:21.946Z,100404.31
2023-05-13T05:58:24.043Z,100395.44
2023-05-13T06:03:27.190Z,100392.00
2023-05-13T06:08:30.916Z,100397.09
2023-05-13T06:13:33.286Z,100387.56
2023-05-13T06:18:35.094Z,100387.78
2023-05-13T06:23:37.827Z,100392.69
2023-05-13T06:28:39.622Z,100397.75
2023-05-13T06:33:41.284Z,100409.25
2023-05-13T06:38:42.964Z,100394.31
2023-05-13T06:43:46.604Z,100398.06
2023-05-13T06:48:56.785Z,100402.56
2023-05-13T06:53:58.935Z,100396.31
2023-05-13T06:59:01.695Z,100396.28
2023-05-13T07:04:03.489Z,100387.59
2023-05-13T07:09:08.482Z,100392.09
2023-05-13T07:14:10.366Z,100382.63
2023-05-13T07:19:12.217Z,100377.16
2023-05-13T07:24:14.612Z,100382.25
2023-05-13T07:29:16.346Z,100377.53
2023-05-13T07:34:17.957Z,100374.47
2023-05-13T07:39:19.601Z,100374.59
2023-05-13T07:44:21.611Z,100373.44
2023-05-13T07:49:23.189Z,100377.06
2023-05-13T07:54:24.828Z,100372.50
2023-05-13T07:59:26.502Z,100367.63
2023-05-13T08:04:28.322Z,100366.78
2023-05-13T08:09:29.994Z,100362.09
2023-05-13T08:14:31.652Z,100367.63
2023-05-13T08:19:33.447Z,100354.59
2023-05-13T08:24:35.055Z,100353.84
2023-05-13T08:29:36.643Z,100357.34
2023-05-13T08:34:38.325Z,100360.41
2023-05-13T08:39:39.890Z,100353.38
2023-05-13T08:44:44.405Z,100352.88
2023-05-13T08:49:46.647Z,100347.28
2023-05-13T08:54:49.088Z,100356.38
2023-05-13T08:59:51.315Z,100351.56
2023-05-13T09:04:55.315Z,100354.44
2023-05-13T09:09:57.762Z,100359.00
2023-05-13T09:14:59.423Z,100360.53
2023-05-13T09:20:07.680Z,100352.94
2023-05-13T09:25:12.830Z,100354.56
2023-05-13T09:30:15.074Z,100361.09
2023-05-13T09:35:17.080Z,100367.28
2023-05-13T09:40:19.135Z,100370.97
2023-05-13T09:45:24.019Z,100360.25
2023-05-13T09:50:25.939Z,100361.25
2023-05-13T09:55:29.006Z,100355.97
2023-05-13T10:00:33.130Z,100343.16
2023-05-13T10:05:36.464Z,100338.34
2023-05-13T10:10:39.116Z,100347.50
2023-05-13T10:15:51.535Z,100343.97
2023-05-13T10:20:54.055Z,100335.75
2023-05-13T10:25:59.295Z,100351.47
2023-05-13T10:31:00.908Z,100342.69
2023-05-13T10:36:36.928Z,100337.38
2023-05-13T10:42:00.027Z,100347.91
2023-05-13T10:47:02.869Z,100327.19
2023-05-13T10:52:08.471Z,100342.78
2023-05-13T10:57:10.515Z,100337.78
2023-05-13T11:02:23.610Z,100348.56
2023-05-13T11:07:28.588Z,100355.72
2023-05-13T11:12:30.385Z,100355.13
2023-05-13T11:17:33.998Z,100367.63
2023-05-13T11:22:36.962Z,100370.59
2023-05-13T11:27:40.471Z,100366.88
2023-05-13T11:32:54.149Z,100381.34
2023-05-13T11:37:59.113Z,100374.28
2023-05-13T11:43:02.150Z,100368.00
2023-05-13T11:48:23.772Z,100375.06
2023-05-13T11:53:25.445Z,100384.03
2023-05-13T11:58:27.425Z,100384.84
2023-05-13T12:03:29.050Z,100401.09
2023-05-13T12:08:30.736Z,100392.84
2023-05-13T12:13:32.404Z,100402.97
2023-05-13T12:18:34.541Z,100398.66
2023-05-13T12:23:40.820Z,100399.44
2023-05-13T12:28:42.729Z,100406.84
2023-05-13T12:33:46.860Z,100416.78
2023-05-13T12:39:01.672Z,100428.63
2023-05-13T12:44:14.294Z,100425.94
2023-05-13T12:49:15.924Z,100425.09
2023-05-13T12:54:17.924Z,100426.91
2023-05-13T12:59:19.572Z,100428.84
2023-05-13T13:04:21.247Z,100424.66
2023-05-13T13:09:22.965Z,100423.97
2023-05-13T13:14:26.116Z,100431.78
2023-05-13T13:19:27.802Z,100433.06
2023-05-13T13:24:29.504Z,100435.44
2023-05-13T13:29:31.163Z,100427.22
2023-05-13T13:34:32.794Z,100428.03
2023-05-13T13:39:34.940Z,100432.84
2023-05-13T13:44:38.347Z,100427.75
2023-05-13T13:49:39.999Z,100429.84
2023-05-13T13:54:41.743Z,100425.63
2023-05-13T13:59:43.389Z,100426.47
2023-05-13T14:04:46.456Z,100417.56
2023-05-13T14:09:49.739Z,100425.69
2023-05-13T14:14:51.343Z,100413.78
2023-05-13T14:19:55.108Z,100415.84
2023-05-13T14:24:56.839Z,100419.91
2023-05-13T14:29:58.998Z,100410.44
2023-05-13T14:35:00.663Z,100407.09
2023-05-13T14:40:02.572Z,100404.19
2023-05-13T14:45:04.737Z,100412.72
2023-05-13T14:50:07.087Z,100411.34
2023-05-13T14:55:09.190Z,100411.19
2023-05-13T15:00:11.669Z,100408.41
2023-05-13T15:05:13.708Z,100408.44
2023-05-13T15:10:15.880Z,100409.50
2023-05-13T15:15:17.520Z,100405.44
2023-05-13T15:20:19.321Z,100401.16
2023-05-13T15:25:21.212Z,100405.09
2023-05-13T15:30:23.334Z,100399.97
2023-05-13T15:35:25.206Z,100407.78
2023-05-13T15:40:27.054Z,100423.00
2023-05-13T15:45:29.110Z,100418.91
2023-05-13T15:50:31.085Z,100421.28
2023-05-13T15:55:34.065Z,100409.00
2023-05-13T16:00:35.896Z,100404.56
2023-05-13T16:05:38.709Z,100407.09
2023-05-13T16:10:40.303Z,100392.81
2023-05-13T16:15:41.963Z,100393.91
2023-05-13T16:20:43.593Z,100390.91
2023-05-13T16:25:45.461Z,100383.50
2023-05-13T16:30:47.120Z,100383.56
2023-05-13T16:35:48.737Z,100384.47
2023-05-13T16:40:50.405Z,100379.56
2023-05-13T16:45:52.050Z,100374.56
2023-05-13T16:50:53.890Z,100366.91
2023-05-13T16:55:55.559Z,100370.81
2023-05-13T17:00:59.222Z,100363.81
2023-05-13T17:06:01.291Z,100362.06
2023-05-13T17:11:02.900Z,100362.13
2023-05-13T17:16:04.929Z,100368.00
2023-05-13T17:21:07.012Z,100372.91
2023-05-13T17:26:08.812Z,100382.06
2023-05-13T17:31:10.602Z,100370.78
2023-05-13T17:36:12.231Z,100371.88
2023-05-13T17:41:16.688Z,100377.56
2023-05-13T17:46:18.335Z,100372.41
2023-05-13T17:51:19.920Z,100367.25
2023-05-13T17:56:21.574Z,100370.72
2023-05-13T18:01:23.451Z,100362.28
2023-05-13T18:06:25.072Z,100372.94
2023-05-13T18:11:27.346Z,100365.94
2023-05-13T18:16:29.179Z,100369.53
2023-05-13T18:21:31.672Z,100366.13
2023-05-13T18:26:33.558Z,100376.19
2023-05-13T18:31:35.250Z,100372.09
2023-05-13T18:36:36.920Z,100375.59
2023-05-13T18:41:38.548Z,100377.25
2023-05-13T18:46:40.347Z,100376.31
2023-05-13T18:51:42.136Z,100375.44
2023-05-13T18:56:44.093Z,100383.53
2023-05-13T19:01:46.554Z,100383.94
2023-05-13T19:06:48.271Z,100388.78
2023-05-13T19:11:49.951Z,100393.38
2023-05-13T19:16:51.875Z,100395.00
2023-05-13T19:21:53.613Z,100399.91
2023-05-13T19:26:55.278Z,100400.22
2023-05-13T19:31:57.161Z,100396.81
2023-05-13T19:36:59.119Z,100401.66
2023-05-13T19:42:00.892Z,100398.19
2023-05-13T19:47:02.844Z,100400.91
2023-05-13T19:52:04.868Z,100408.91
2023-05-13T19:57:07.983Z,100409.91
2023-05-13T20:02:10.373Z,100415.53
2023-05-13T20:07:12.082Z,100415.72
2023-05-13T20:12:13.656Z,100405.50
2023-05-13T20:17:19.820Z,100411.44
2023-05-13T20:22:21.831Z,100399.59
2023-05-13T20:27:23.529Z,100404.88
2023-05-13T20:32:25.255Z,100398.31
2023-05-13T20:37:29.792Z,100406.50
2023-05-13T20:42:31.926Z,100414.03
2023-05-13T20:47:33.616Z,100417.69
2023-05-13T20:52:35.355Z,100407.88
2023-05-13T20:57:37.089Z,100412.25
2023-05-13T21:02:38.982Z,100403.47
2023-05-13T21:07:40.798Z,100397.03
2023-05-13T21:12:47.108Z,100408.75
2023-05-13T21:17:48.756Z,100398.94
2023-05-13T21:22:50.379Z,100404.25
2023-05-13T21:27:51.991Z,100405.19
2023-05-13T21:32:53.891Z,100406.72
2023-05-13T21:38:01.431Z,100404.00
2023-05-13T21:43:12.924Z,100407.97
2023-05-13T21:48:14.917Z,100401.56
2023-05-13T21:53:17.054Z,100402.13
2023-05-13T21:58:19.433Z,100400.88
2023-05-13T22:03:22.369Z,100405.25
2023-05-13T22:08:24.073Z,100403.47
2023-05-13T22:13:25.789Z,100399.38
2023-05-13T22:18:27.594Z,100394.03
2023-05-13T22:23:29.261Z,100391.75
2023-05-13T22:28:31.139Z,100387.66
2023-05-13T22:33:32.810Z,100387.69
2023-05-13T22:38:34.425Z,100382.47
2023-05-13T22:43:36.040Z,100385.41
2023-05-13T22:48:37.662Z,100383.28
2023-05-13T22:53:39.303Z,100375.13
2023-05-13T22:58:40.975Z,100378.91
2023-05-13T23:03:42.756Z,100377.50
2023-05-13T23:08:44.404Z,100370.25
2023-05-13T23:13:46.049Z,100371.78
2023-05-13T23:18:47.714Z,100363.09
2023-05-13T23:23:50.391Z,100354.72
2023-05-13T23:28:51.964Z,100350.75
2023-05-13T23:33:53.614Z,100350.91
2023-05-13T23:38:55.318Z,100335.81
2023-05-13T23:43:56.906Z,100336.91
2023-05-13T23:48:58.534Z,100333.25
2023-05-13T23:54:00.889Z,100337.28
2023-05-13T23:59:02.612Z,100320.63
